Terminal Aerodrome Forecast
Issued by NWS

Home | Current Version | Previous Version | Text Only | Print | Product List | Glossary On
Versions: 1 2 3 4 5 6 7 8 9 10 11 12 13 14 15 16 17 18 19 20 21 22 23 24
000
FTUS44 KBMX 280917 AAB
TAFANB
TAF AMD
KANB 280917Z 2809/2906 05006KT P6SM SCT004
      TEMPO 2809/2810 5SM BR BKN004
     FM281030 12003KT 5SM BR OVC004
     FM281500 14006KT P6SM VCSH SCT007 OVC015
     FM282000 12007KT P6SM SHRA VCTS OVC050CB
     FM290300 00000KT P6SM OVC050=

USA.gov is the U.S. government's official web portal to all federal, state and local government web resources and services.